Time;durP1;ratioP1;P1;durP2;ratioP2;P2;SDS_P1;SDS_P2;PMS_P1;PMS_P2;Temp;Humidity;BMP_temperature;BMP_pressure;BME280_temperature;BME280_humidity;BME280_pressure;Samples;Min_cycle;Max_cycle;Signal;HPM_P1;HPM_P2
2024/02/07 00:01:36;;;;;;;7.50;3.53;;;11.60;99.90;;;;;;4847883;29;20484;-65
2024/02/07 00:04:03;;;;;;;10.77;4.43;;;11.60;99.90;;;;;;4849491;29;20290;-65
2024/02/07 00:06:29;;;;;;;9.83;3.60;;;11.60;99.90;;;;;;4847503;29;20298;-66
2024/02/07 00:08:55;;;;;;;6.60;2.80;;;11.60;99.90;;;;;;4847402;29;20914;-66
2024/02/07 00:11:20;;;;;;;8.90;3.40;;;11.60;99.90;;;;;;4846719;29;20426;-65
2024/02/07 00:13:46;;;;;;;7.90;3.00;;;11.60;99.90;;;;;;4846185;29;20492;-65
2024/02/07 00:16:11;;;;;;;6.70;3.47;;;11.60;99.90;;;;;;4846743;29;20249;-65
2024/02/07 00:18:37;;;;;;;8.03;2.93;;;11.70;99.90;;;;;;4850033;29;20594;-66
2024/02/07 00:21:03;;;;;;;6.33;3.20;;;11.60;99.90;;;;;;4847803;29;20229;-66
2024/02/07 00:23:28;;;;;;;2.80;2.50;;;11.50;99.90;;;;;;4847355;29;20197;-67
2024/02/07 00:25:54;;;;;;;5.03;3.33;;;11.50;99.90;;;;;;4846388;29;20334;-66
2024/02/07 00:28:19;;;;;;;7.33;3.70;;;11.50;99.90;;;;;;4845635;29;20189;-64
2024/02/07 00:30:45;;;;;;;5.63;3.40;;;11.50;99.90;;;;;;4844731;29;20197;-66
2024/02/07 00:33:10;;;;;;;10.03;3.67;;;11.40;99.90;;;;;;4845978;29;20230;-65
2024/02/07 00:35:36;;;;;;;8.27;3.40;;;11.30;99.90;;;;;;4844443;29;20220;-66
2024/02/07 00:38:02;;;;;;;5.67;3.27;;;11.20;99.90;;;;;;4844227;29;20556;-64
2024/02/07 00:40:27;;;;;;;7.83;3.10;;;11.20;99.90;;;;;;4844747;29;20189;-66
2024/02/07 00:42:54;;;;;;;11.00;3.53;;;11.10;99.90;;;;;;4844540;29;20210;-65
2024/02/07 00:45:20;;;;;;;9.40;4.53;;;11.10;99.90;;;;;;4844367;29;20202;-66
2024/02/07 00:47:46;;;;;;;6.93;4.00;;;11.00;99.90;;;;;;4846224;29;20723;-65
2024/02/07 00:50:12;;;;;;;5.27;3.00;;;11.10;99.90;;;;;;4846051;29;20233;-66
2024/02/07 00:52:37;;;;;;;4.40;2.90;;;10.90;99.90;;;;;;4846553;29;20471;-64
2024/02/07 00:55:03;;;;;;;5.50;2.93;;;10.90;99.90;;;;;;4844941;29;20584;-64
2024/02/07 00:57:28;;;;;;;7.53;3.83;;;10.80;99.90;;;;;;4844207;29;20705;-64
2024/02/07 00:59:54;;;;;;;5.67;2.97;;;10.80;99.90;;;;;;4844796;29;20226;-66
2024/02/07 01:02:20;;;;;;;7.23;3.20;;;10.70;99.90;;;;;;4844161;29;20194;-65
2024/02/07 01:04:47;;;;;;;8.00;4.03;;;10.70;99.90;;;;;;4845270;29;20356;-64
2024/02/07 01:07:12;;;;;;;5.20;3.40;;;10.80;99.90;;;;;;4843936;29;20814;-65
2024/02/07 01:09:38;;;;;;;5.33;3.50;;;10.80;99.90;;;;;;4843942;29;20423;-66
2024/02/07 01:12:04;;;;;;;5.80;3.00;;;10.90;99.90;;;;;;4843572;29;20222;-63
2024/02/07 01:14:30;;;;;;;10.47;4.00;;;10.90;99.90;;;;;;4843561;29;20513;-66
2024/02/07 01:16:55;;;;;;;7.03;3.20;;;10.90;99.90;;;;;;4844612;29;20742;-65
2024/02/07 01:19:22;;;;;;;4.37;2.90;;;11.00;99.90;;;;;;4849671;29;20265;-66
2024/02/07 01:21:48;;;;;;;4.87;2.80;;;11.00;99.90;;;;;;4843849;29;20656;-65
2024/02/07 01:24:14;;;;;;;6.70;2.90;;;11.00;99.90;;;;;;4843362;29;20525;-65
2024/02/07 01:26:39;;;;;;;6.50;3.80;;;11.00;99.90;;;;;;4843540;29;20292;-65
2024/02/07 01:29:05;;;;;;;7.57;3.63;;;10.90;99.90;;;;;;4843571;29;20201;-64
2024/02/07 01:31:31;;;;;;;5.13;3.47;;;10.80;99.90;;;;;;4843243;29;20271;-64
2024/02/07 01:33:57;;;;;;;3.83;2.87;;;10.90;99.90;;;;;;4847550;29;20509;-65
2024/02/07 01:36:24;;;;;;;5.30;2.60;;;10.70;99.90;;;;;;4843030;29;20219;-65
2024/02/07 01:38:50;;;;;;;3.70;2.83;;;10.60;99.90;;;;;;4843159;29;20430;-66
2024/02/07 01:41:16;;;;;;;6.17;3.30;;;10.50;99.90;;;;;;4843854;29;20514;-63
2024/02/07 01:43:42;;;;;;;3.90;2.93;;;10.50;99.90;;;;;;4844407;29;20422;-64
2024/02/07 01:46:07;;;;;;;5.10;3.40;;;10.40;99.90;;;;;;4843584;29;20240;-63
2024/02/07 01:48:34;;;;;;;9.13;3.80;;;10.40;99.90;;;;;;4848390;29;20533;-64
2024/02/07 01:51:01;;;;;;;7.40;3.63;;;10.40;99.90;;;;;;4848984;29;20504;-65
2024/02/07 01:53:29;;;;;;;5.60;3.73;;;10.40;99.90;;;;;;4843184;29;20485;-66
2024/02/07 01:55:55;;;;;;;5.43;3.33;;;10.30;99.90;;;;;;4843387;29;20786;-64
2024/02/07 01:58:24;;;;;;;5.87;3.37;;;10.30;99.90;;;;;;4843512;29;20482;-64
2024/02/07 02:00:49;;;;;;;5.50;3.10;;;10.30;99.90;;;;;;4843237;29;20891;-65
2024/02/07 02:03:16;;;;;;;6.37;3.97;;;10.30;99.90;;;;;;4846229;29;20799;-65
2024/02/07 02:05:41;;;;;;;5.10;3.00;;;10.30;99.90;;;;;;4843038;29;20567;-64
2024/02/07 02:08:08;;;;;;;10.13;3.60;;;10.20;99.90;;;;;;4843171;29;20268;-65
2024/02/07 02:10:33;;;;;;;7.83;3.73;;;10.20;99.90;;;;;;4843664;29;20208;-65
2024/02/07 02:12:59;;;;;;;5.93;3.40;;;10.20;99.90;;;;;;4842794;29;20450;-64
2024/02/07 02:15:25;;;;;;;9.40;3.47;;;10.10;99.90;;;;;;4842848;29;20283;-64
2024/02/07 02:17:52;;;;;;;7.40;3.50;;;10.10;99.90;;;;;;4844949;29;20516;-65
2024/02/07 02:20:18;;;;;;;7.43;3.87;;;10.00;99.90;;;;;;4846001;29;20189;-65
2024/02/07 02:23:04;;;;;;;6.23;3.43;;;10.00;99.90;;;;;;4844539;29;20456;-64
2024/02/07 02:25:36;;;;;;;8.80;4.00;;;10.00;99.90;;;;;;4843148;29;20454;-67
2024/02/07 02:28:21;;;;;;;8.40;3.00;;;10.00;99.90;;;;;;4842975;29;20437;-66
2024/02/07 02:30:54;;;;;;;4.33;2.90;;;10.00;99.90;;;;;;4842960;29;20445;-66
2024/02/07 02:33:25;;;;;;;4.70;3.60;;;9.90;99.90;;;;;;4845887;29;20514;-63
2024/02/07 02:35:53;;;;;;;9.20;4.30;;;9.90;99.90;;;;;;4843024;29;20450;-65
2024/02/07 02:38:21;;;;;;;6.10;3.30;;;9.90;99.90;;;;;;4842862;29;20465;-66
2024/02/07 02:40:50;;;;;;;8.67;3.50;;;9.90;99.90;;;;;;4841869;29;20448;-66
2024/02/07 02:43:16;;;;;;;4.53;3.53;;;9.90;99.90;;;;;;4842744;29;20454;-66
2024/02/07 02:45:41;;;;;;;4.97;3.30;;;9.80;99.90;;;;;;4843024;29;20465;-63
2024/02/07 02:48:07;;;;;;;8.63;3.57;;;9.80;99.90;;;;;;4844273;29;20457;-65
2024/02/07 02:50:33;;;;;;;7.67;3.43;;;9.70;99.90;;;;;;4844446;29;20478;-64
2024/02/07 02:52:59;;;;;;;7.83;3.27;;;9.70;99.90;;;;;;4842441;29;20233;-64
2024/02/07 02:55:25;;;;;;;8.00;3.20;;;9.70;99.90;;;;;;4842443;29;20450;-65
2024/02/07 02:57:51;;;;;;;9.30;3.97;;;9.70;99.90;;;;;;4842530;29;20502;-63
2024/02/07 03:00:20;;;;;;;7.23;3.10;;;9.70;99.90;;;;;;4842668;29;20418;-66
2024/02/07 03:02:46;;;;;;;6.53;3.60;;;9.70;99.90;;;;;;4843493;29;20185;-65
2024/02/07 03:10:43;;;;;;;7.80;3.43;;;9.60;99.90;;;;;;4841981;29;20445;-65
2024/02/07 03:13:10;;;;;;;5.97;3.50;;;9.70;99.90;;;;;;4842310;29;20469;-65
2024/02/07 03:15:35;;;;;;;8.53;3.80;;;9.70;99.90;;;;;;4842416;29;20472;-66
2024/02/07 03:18:01;;;;;;;6.93;2.80;;;9.70;99.90;;;;;;4843802;29;20450;-66
2024/02/07 03:20:28;;;;;;;6.83;3.43;;;9.70;99.90;;;;;;4842882;29;20281;-67
2024/02/07 03:22:55;;;;;;;7.40;3.10;;;9.70;99.90;;;;;;4846031;29;20220;-65
2024/02/07 03:25:21;;;;;;;7.23;3.07;;;9.70;99.90;;;;;;4845775;29;20494;-65
2024/02/07 03:27:50;;;;;;;7.73;3.37;;;9.70;99.90;;;;;;4845365;29;20754;-65
2024/02/07 03:30:22;;;;;;;6.43;4.90;;;9.70;99.90;;;;;;4845670;29;20200;-64
2024/02/07 03:32:49;;;;;;;6.50;2.80;;;9.70;99.90;;;;;;4846835;29;20474;-66
2024/02/07 03:35:14;;;;;;;8.43;3.63;;;9.60;99.90;;;;;;4847468;29;20738;-65
2024/02/07 03:37:40;;;;;;;5.90;3.20;;;9.60;99.90;;;;;;4845623;29;20466;-65
2024/02/07 03:40:15;;;;;;;6.20;3.70;;;9.60;99.90;;;;;;4845600;29;20193;-64
2024/02/07 03:42:41;;;;;;;6.80;2.97;;;9.60;99.90;;;;;;4844699;29;20436;-65
2024/02/07 03:45:09;;;;;;;5.60;2.77;;;9.60;99.90;;;;;;4845128;29;20425;-66
2024/02/07 03:47:39;;;;;;;7.37;3.00;;;9.70;99.90;;;;;;4845316;29;20476;-64
2024/02/07 03:50:12;;;;;;;7.90;3.13;;;9.70;99.90;;;;;;4851896;29;20525;-65
2024/02/07 03:52:39;;;;;;;6.50;2.23;;;9.70;99.90;;;;;;4847068;29;20470;-64
2024/02/07 03:55:08;;;;;;;5.43;3.00;;;9.70;99.90;;;;;;4845529;29;20513;-62
2024/02/07 03:57:34;;;;;;;5.70;2.47;;;9.60;99.90;;;;;;4844656;29;20685;-66
2024/02/07 04:00:00;;;;;;;5.20;2.37;;;9.70;99.90;;;;;;4845103;29;20438;-65
2024/02/07 04:02:25;;;;;;;3.30;2.30;;;9.60;99.90;;;;;;4844835;29;20477;-65
2024/02/07 04:04:52;;;;;;;6.37;4.13;;;9.60;99.90;;;;;;4849618;29;20193;-66
2024/02/07 04:07:26;;;;;;;4.50;2.60;;;9.60;99.90;;;;;;4844985;29;20225;-65
2024/02/07 04:09:52;;;;;;;7.83;3.30;;;9.70;99.90;;;;;;4847005;29;20422;-66
2024/02/07 05:17:25;;;;;;;3.87;2.40;;;9.40;99.90;;;;;;4842827;29;20469;-66
2024/02/07 05:19:51;;;;;;;3.57;2.30;;;9.40;99.90;;;;;;4845357;29;20930;-64
2024/02/07 05:22:17;;;;;;;1.90;1.70;;;9.40;99.90;;;;;;4845801;29;20746;-65
2024/02/07 05:24:47;;;;;;;5.23;2.27;;;9.40;99.90;;;;;;4843122;29;20202;-66
2024/02/07 05:27:13;;;;;;;3.50;2.30;;;9.40;99.90;;;;;;4844598;29;20454;-65
2024/02/07 05:29:39;;;;;;;3.73;2.50;;;9.40;99.90;;;;;;4845279;29;20525;-66
2024/02/07 05:32:06;;;;;;;6.13;2.87;;;9.30;99.90;;;;;;4845011;29;20449;-67
2024/02/07 05:34:33;;;;;;;4.10;2.50;;;8.90;99.90;;;;;;4846913;29;20410;-67
2024/02/07 05:36:59;;;;;;;6.20;2.33;;;8.40;99.90;;;;;;4845722;29;20477;-66
2024/02/07 05:39:26;;;;;;;3.10;1.93;;;7.90;99.90;;;;;;4844936;29;20674;-67
2024/02/07 05:41:52;;;;;;;3.13;2.20;;;7.50;99.90;;;;;;4845963;29;20283;-66
2024/02/07 05:44:17;;;;;;;2.13;1.37;;;7.10;99.90;;;;;;4845688;29;20442;-67
2024/02/07 05:46:43;;;;;;;1.70;1.20;;;6.70;99.90;;;;;;4845101;29;20453;-67
2024/02/07 05:49:12;;;;;;;3.00;1.50;;;6.50;99.90;;;;;;4844517;29;20637;-67
2024/02/07 05:51:38;;;;;;;1.40;1.00;;;6.30;99.90;;;;;;4844044;29;20205;-66
2024/02/07 05:54:03;;;;;;;2.07;1.10;;;6.10;99.90;;;;;;4845067;29;20477;-66
2024/02/07 05:56:29;;;;;;;1.67;1.20;;;6.00;99.90;;;;;;4843631;29;20445;-65
2024/02/07 05:58:55;;;;;;;1.30;0.93;;;6.00;99.90;;;;;;4843750;29;20197;-64
2024/02/07 06:01:23;;;;;;;2.13;1.10;;;5.80;99.90;;;;;;4847232;29;20453;-63
2024/02/07 06:03:52;;;;;;;1.83;0.80;;;5.70;99.90;;;;;;4849155;29;20572;-68
2024/02/07 06:06:19;;;;;;;2.13;0.90;;;5.60;99.90;;;;;;4847238;29;20915;-69
2024/02/07 06:08:49;;;;;;;3.60;0.90;;;5.50;99.90;;;;;;4848208;29;20442;-69
2024/02/07 06:11:15;;;;;;;1.57;0.80;;;5.40;99.90;;;;;;4849044;29;20494;-68
2024/02/07 06:13:41;;;;;;;1.37;0.87;;;5.30;99.90;;;;;;4848083;29;20765;-67
2024/02/07 06:16:07;;;;;;;1.73;0.87;;;5.30;99.90;;;;;;4848625;29;20506;-66
2024/02/07 06:18:32;;;;;;;2.80;0.90;;;5.30;99.90;;;;;;4848525;29;20907;-68
2024/02/07 06:20:58;;;;;;;1.60;0.90;;;5.20;99.90;;;;;;4850245;29;20743;-67
2024/02/07 06:23:23;;;;;;;2.57;1.30;;;5.20;99.90;;;;;;4847425;29;20288;-66
2024/02/07 06:25:49;;;;;;;2.63;1.50;;;5.20;99.90;;;;;;4845215;29;20217;-67
2024/02/07 06:28:15;;;;;;;1.83;1.33;;;5.20;99.90;;;;;;4845155;29;20196;-67
2024/02/07 06:30:41;;;;;;;2.50;1.60;;;5.20;99.90;;;;;;4843690;29;20245;-66
2024/02/07 06:33:08;;;;;;;2.40;1.50;;;5.20;99.90;;;;;;4848273;29;22165;-65
2024/02/07 06:35:34;;;;;;;2.97;2.23;;;5.10;99.90;;;;;;4848280;29;20227;-68
2024/02/07 06:37:59;;;;;;;3.80;2.07;;;5.10;99.90;;;;;;4844070;29;20550;-68
2024/02/07 06:40:27;;;;;;;2.93;1.93;;;5.10;99.90;;;;;;4844555;29;20285;-66
2024/02/07 06:42:53;;;;;;;3.37;2.37;;;5.10;99.90;;;;;;4846781;29;20231;-69
2024/02/07 06:45:19;;;;;;;5.07;2.27;;;5.10;99.90;;;;;;4848220;29;20844;-67
2024/02/07 06:47:45;;;;;;;3.00;2.00;;;5.10;99.90;;;;;;4847027;29;20200;-70
2024/02/07 06:50:10;;;;;;;4.00;2.83;;;5.10;99.90;;;;;;4850479;29;20464;-70
2024/02/07 06:52:36;;;;;;;5.37;2.50;;;5.10;99.90;;;;;;4846261;29;20549;-68
2024/02/07 06:55:03;;;;;;;5.20;2.20;;;5.10;99.90;;;;;;4846074;29;20472;-69
2024/02/07 06:57:28;;;;;;;3.87;2.30;;;5.10;99.90;;;;;;4849461;29;21068;-68
2024/02/07 06:59:54;;;;;;;4.77;2.20;;;5.00;99.90;;;;;;4848771;29;20422;-68
2024/02/07 07:02:19;;;;;;;4.03;2.80;;;5.10;99.90;;;;;;4849737;29;20256;-69
2024/02/07 07:04:45;;;;;;;5.57;2.57;;;5.10;99.90;;;;;;4855007;29;20204;-68
2024/02/07 07:07:10;;;;;;;4.40;2.50;;;5.00;99.90;;;;;;4848903;29;20275;-69
2024/02/07 07:09:36;;;;;;;5.87;3.17;;;5.10;99.90;;;;;;4848771;29;20327;-67
2024/02/07 07:12:01;;;;;;;4.67;3.20;;;5.10;99.90;;;;;;4849123;29;20520;-68
2024/02/07 07:14:27;;;;;;;3.90;2.87;;;5.20;99.90;;;;;;4849619;29;20272;-69
2024/02/07 07:16:52;;;;;;;5.70;3.70;;;5.20;99.90;;;;;;4849877;29;20213;-70
2024/02/07 07:19:18;;;;;;;7.63;3.80;;;5.00;99.90;;;;;;4854709;29;20208;-67
2024/02/07 07:21:43;;;;;;;5.50;3.60;;;5.00;99.90;;;;;;4854363;29;20224;-69
2024/02/07 07:24:09;;;;;;;6.80;4.00;;;5.20;99.90;;;;;;4848857;29;20607;-68
2024/02/07 07:26:35;;;;;;;6.80;4.20;;;5.20;99.90;;;;;;4849448;29;20299;-66
2024/02/07 07:29:00;;;;;;;5.60;3.33;;;5.20;99.90;;;;;;4850676;29;20208;-70
2024/02/07 07:31:26;;;;;;;6.17;4.13;;;5.30;99.90;;;;;;4851445;29;20189;-71
2024/02/07 07:33:51;;;;;;;6.47;3.47;;;5.30;99.90;;;;;;4855890;29;20237;-70
2024/02/07 07:36:17;;;;;;;6.43;3.63;;;5.10;99.90;;;;;;4853126;29;20613;-69
2024/02/07 07:38:43;;;;;;;6.27;3.60;;;5.20;99.90;;;;;;4851960;29;20217;-69
2024/02/07 07:41:08;;;;;;;6.63;3.37;;;5.20;99.90;;;;;;4851936;29;20487;-67
2024/02/07 07:43:34;;;;;;;5.67;3.63;;;5.00;99.90;;;;;;4851318;29;20257;-70
2024/02/07 07:45:59;;;;;;;5.07;3.37;;;5.10;99.90;;;;;;4850336;29;20217;-71
2024/02/07 07:48:26;;;;;;;4.83;3.20;;;5.10;99.90;;;;;;4853732;29;20208;-71
2024/02/07 07:50:53;;;;;;;6.13;3.00;;;5.20;99.90;;;;;;4855981;29;20233;-71
2024/02/07 07:53:19;;;;;;;5.40;3.23;;;5.20;99.90;;;;;;4850018;29;20485;-69
2024/02/07 07:55:44;;;;;;;7.47;3.50;;;5.20;99.90;;;;;;4850443;29;20441;-68
2024/02/07 07:58:10;;;;;;;11.13;4.13;;;5.20;99.90;;;;;;4852108;29;20224;-70
2024/02/07 08:00:36;;;;;;;6.90;3.57;;;5.10;99.90;;;;;;4851689;29;20201;-69
2024/02/07 08:03:03;;;;;;;7.40;4.50;;;5.10;99.90;;;;;;4853418;29;20229;-69
2024/02/07 08:05:28;;;;;;;6.17;3.93;;;5.10;99.90;;;;;;4849729;29;20522;-67
2024/02/07 08:07:54;;;;;;;4.67;3.33;;;5.10;99.90;;;;;;4848716;29;20426;-69
2024/02/07 08:10:20;;;;;;;6.20;3.57;;;5.20;99.90;;;;;;4848821;29;20277;-69
2024/02/07 08:12:45;;;;;;;4.30;2.70;;;5.20;99.90;;;;;;4848762;29;20450;-69
2024/02/07 08:15:11;;;;;;;4.60;2.43;;;5.10;99.90;;;;;;4850776;29;20410;-68
2024/02/07 08:17:36;;;;;;;4.47;3.13;;;5.20;99.90;;;;;;4846783;29;20201;-68
2024/02/07 08:20:02;;;;;;;2.97;2.23;;;5.10;99.90;;;;;;4846803;29;20197;-69
2024/02/07 08:22:28;;;;;;;3.97;2.20;;;5.30;99.90;;;;;;4850158;29;20539;-68
2024/02/07 08:24:54;;;;;;;3.50;1.97;;;5.30;99.90;;;;;;4849324;29;20514;-70
2024/02/07 08:27:20;;;;;;;3.30;2.27;;;5.20;99.90;;;;;;4848443;29;20224;-69
2024/02/07 08:29:45;;;;;;;3.93;2.20;;;5.00;99.90;;;;;;4848835;29;20847;-69
2024/02/07 08:32:11;;;;;;;5.10;2.13;;;5.00;99.90;;;;;;4852744;29;20208;-70
2024/02/07 08:34:36;;;;;;;3.90;1.70;;;5.10;99.90;;;;;;4852718;29;20276;-69
2024/02/07 08:37:02;;;;;;;3.50;2.00;;;5.10;99.90;;;;;;4848194;29;20241;-68
2024/02/07 08:39:28;;;;;;;3.50;2.10;;;5.30;99.90;;;;;;4845755;29;20193;-70
2024/02/07 08:41:54;;;;;;;2.67;1.90;;;5.20;99.90;;;;;;4848057;29;20460;-70
2024/02/07 08:44:19;;;;;;;3.63;1.90;;;5.30;99.90;;;;;;4849794;29;20335;-70
2024/02/07 08:46:47;;;;;;;3.30;1.80;;;5.30;99.90;;;;;;4848050;29;20454;-70
2024/02/07 08:49:13;;;;;;;3.10;1.30;;;5.30;99.90;;;;;;4847039;29;20201;-69
2024/02/07 08:51:38;;;;;;;2.70;1.20;;;5.40;99.90;;;;;;4849667;29;20422;-68
2024/02/07 08:54:04;;;;;;;3.20;1.33;;;5.40;99.90;;;;;;4847584;29;20277;-70
2024/02/07 08:56:30;;;;;;;2.50;1.23;;;5.40;99.90;;;;;;4847794;29;20217;-70
2024/02/07 08:58:55;;;;;;;1.50;1.10;;;5.50;99.90;;;;;;4846221;29;20181;-68
2024/02/07 09:01:22;;;;;;;1.80;1.20;;;5.50;99.90;;;;;;4848615;29;20169;-69
2024/02/07 09:03:47;;;;;;;2.60;1.10;;;5.60;99.90;;;;;;4848209;29;20556;-68
2024/02/07 09:06:13;;;;;;;1.37;0.97;;;5.40;99.90;;;;;;4847512;29;20474;-69
2024/02/07 09:08:39;;;;;;;1.40;1.00;;;5.50;99.90;;;;;;4847555;29;20610;-69
2024/02/07 09:11:05;;;;;;;2.73;1.50;;;5.60;99.90;;;;;;4845999;29;20576;-69
2024/02/07 09:13:30;;;;;;;2.40;1.10;;;5.60;99.90;;;;;;4842591;29;20544;-70
2024/02/07 09:15:56;;;;;;;2.23;1.20;;;5.60;99.90;;;;;;4848783;29;20261;-69
2024/02/07 09:18:21;;;;;;;2.17;1.30;;;5.50;99.90;;;;;;4849072;29;20280;-70
2024/02/07 09:20:48;;;;;;;2.67;1.50;;;5.50;99.90;;;;;;4850100;29;20456;-71
2024/02/07 09:23:14;;;;;;;2.10;1.27;;;5.40;99.90;;;;;;4849816;29;20185;-72
2024/02/07 09:25:39;;;;;;;1.80;1.30;;;5.50;99.90;;;;;;4847845;29;20450;-72
2024/02/07 09:28:05;;;;;;;1.53;1.10;;;5.30;99.90;;;;;;4851038;29;20189;-72
2024/02/07 09:30:31;;;;;;;4.10;1.00;;;5.20;99.90;;;;;;4848230;29;20656;-69
2024/02/07 09:32:56;;;;;;;1.90;1.20;;;5.00;99.90;;;;;;4846452;29;20224;-68
2024/02/07 09:35:22;;;;;;;2.30;1.07;;;4.80;99.90;;;;;;4849781;29;20229;-69
2024/02/07 09:37:47;;;;;;;1.77;0.90;;;4.80;99.90;;;;;;4862273;29;20229;-69
2024/02/07 09:40:13;;;;;;;1.47;1.17;;;4.70;99.90;;;;;;4842750;29;20192;-68
2024/02/07 09:42:43;;;;;;;3.33;1.00;;;4.60;99.90;;;;;;4847686;29;20193;-67
2024/02/07 09:45:12;;;;;;;2.47;0.90;;;4.70;99.90;;;;;;4847384;29;20203;-71
2024/02/07 09:47:56;;;;;;;1.10;0.90;;;4.60;99.90;;;;;;4848278;29;20727;-69
2024/02/07 09:50:21;;;;;;;1.03;0.77;;;4.50;99.90;;;;;;4848579;29;20883;-70
2024/02/07 09:52:51;;;;;;;2.63;1.10;;;4.60;99.90;;;;;;4848152;29;20472;-68
2024/02/07 09:55:16;;;;;;;2.93;1.10;;;4.70;99.90;;;;;;4847992;29;20293;-69
2024/02/07 09:57:42;;;;;;;2.30;1.23;;;4.70;99.90;;;;;;4848657;29;20454;-71
2024/02/07 10:00:08;;;;;;;1.60;0.90;;;4.80;99.90;;;;;;4848537;29;20184;-70
2024/02/07 10:02:38;;;;;;;2.17;0.87;;;4.80;99.90;;;;;;4847093;29;20773;-71
2024/02/07 10:05:05;;;;;;;2.07;1.00;;;4.90;99.90;;;;;;4849608;29;20493;-70
2024/02/07 10:07:33;;;;;;;1.70;0.90;;;5.10;99.90;;;;;;4848112;29;20465;-70
2024/02/07 10:09:59;;;;;;;1.93;0.80;;;5.00;99.90;;;;;;4853508;29;20449;-68
2024/02/07 10:12:25;;;;;;;1.20;0.70;;;5.10;99.90;;;;;;4853399;29;20434;-69
2024/02/07 10:14:51;;;;;;;1.37;0.77;;;5.10;99.90;;;;;;4851948;29;20236;-70
2024/02/07 10:17:17;;;;;;;1.10;0.70;;;5.20;99.90;;;;;;4852039;29;20466;-70
2024/02/07 10:19:42;;;;;;;1.17;0.90;;;5.10;99.90;;;;;;4853658;29;20197;-69
2024/02/07 10:22:17;;;;;;;1.43;0.90;;;5.20;99.90;;;;;;4848724;29;20570;-67
2024/02/07 10:24:45;;;;;;;1.27;0.80;;;5.20;99.90;;;;;;4845250;29;20241;-72
2024/02/07 10:27:19;;;;;;;1.60;1.15;;;5.30;99.90;;;;;;4845560;29;20444;-67
2024/02/07 10:29:45;;;;;;;1.33;0.90;;;5.20;99.90;;;;;;4846050;29;20204;-69
2024/02/07 10:32:16;;;;;;;2.33;1.90;;;5.10;99.90;;;;;;4848923;29;20429;-69
2024/02/07 10:34:41;;;;;;;1.80;1.40;;;5.00;99.90;;;;;;4852930;29;20525;-70
2024/02/07 10:37:07;;;;;;;3.27;1.50;;;4.90;99.90;;;;;;4850476;29;20915;-70
2024/02/07 10:39:32;;;;;;;2.00;1.03;;;4.90;99.90;;;;;;4851758;29;20201;-68
2024/02/07 10:42:05;;;;;;;2.23;1.30;;;4.90;99.90;;;;;;4850572;29;20208;-70
2024/02/07 10:44:31;;;;;;;2.30;1.37;;;5.00;99.90;;;;;;4845585;29;20204;-69
2024/02/07 10:47:00;;;;;;;2.17;1.30;;;4.90;99.90;;;;;;4864571;29;20488;-71
2024/02/07 10:49:26;;;;;;;2.23;1.20;;;4.90;99.90;;;;;;4849681;29;20216;-69
2024/02/07 10:51:52;;;;;;;3.10;1.40;;;4.90;99.90;;;;;;4852009;29;20422;-69
2024/02/07 10:54:17;;;;;;;3.60;1.60;;;4.80;99.90;;;;;;4854391;29;20236;-71
2024/02/07 10:56:45;;;;;;;2.10;1.50;;;4.70;99.90;;;;;;4850450;29;20231;-72
2024/02/07 10:59:12;;;;;;;3.50;1.40;;;4.50;99.90;;;;;;4850422;29;20189;-71
2024/02/07 11:01:40;;;;;;;3.97;1.67;;;4.50;99.90;;;;;;4845311;29;20431;-69
2024/02/07 11:04:08;;;;;;;4.07;1.70;;;4.40;99.90;;;;;;4848584;29;20446;-68
2024/02/07 11:06:35;;;;;;;2.53;1.50;;;4.50;99.90;;;;;;4852166;29;20458;-70
2024/02/07 11:09:02;;;;;;;2.60;1.50;;;4.50;99.90;;;;;;4852932;29;20461;-71
2024/02/07 11:11:29;;;;;;;2.43;1.50;;;4.40;99.90;;;;;;4850738;29;20465;-69
2024/02/07 11:13:57;;;;;;;1.90;1.30;;;4.40;99.90;;;;;;4853923;29;20908;-72
2024/02/07 11:16:23;;;;;;;1.80;1.10;;;4.30;99.90;;;;;;4852029;29;20760;-71
2024/02/07 11:18:49;;;;;;;2.40;1.23;;;4.40;99.90;;;;;;4851892;29;20522;-69
2024/02/07 11:21:28;;;;;;;1.13;1.00;;;4.50;99.90;;;;;;4867830;29;20446;-72
2024/02/07 11:23:56;;;;;;;2.50;0.90;;;4.60;99.90;;;;;;4850262;29;20213;-72
2024/02/07 11:26:23;;;;;;;1.60;1.13;;;4.70;99.90;;;;;;4851205;29;20457;-70
2024/02/07 11:28:49;;;;;;;2.53;0.90;;;4.60;99.90;;;;;;4867720;29;20442;-72
2024/02/07 11:31:16;;;;;;;1.93;1.00;;;4.40;99.90;;;;;;4852947;29;20535;-71
2024/02/07 11:33:47;;;;;;;1.70;0.90;;;4.30;99.90;;;;;;4853998;29;20538;-71
2024/02/07 11:36:17;;;;;;;1.60;1.20;;;4.40;99.90;;;;;;4849363;29;20437;-70
2024/02/07 11:38:54;;;;;;;1.17;0.90;;;4.60;99.90;;;;;;4859661;29;20428;-69
2024/02/07 11:41:20;;;;;;;1.10;0.80;;;4.60;99.90;;;;;;4849363;29;20449;-71
2024/02/07 11:43:47;;;;;;;0.90;0.60;;;4.60;99.90;;;;;;4849811;29;20398;-71
2024/02/07 11:46:15;;;;;;;0.90;0.60;;;4.60;99.90;;;;;;4850550;29;20741;-70
2024/02/07 11:48:42;;;;;;;0.90;0.63;;;4.70;99.90;;;;;;4849845;29;20466;-70
2024/02/07 11:51:08;;;;;;;1.10;0.80;;;4.70;99.90;;;;;;4851757;29;20792;-70
2024/02/07 11:53:38;;;;;;;1.10;0.50;;;4.70;99.90;;;;;;4851700;29;20208;-72
2024/02/07 11:56:18;;;;;;;0.90;0.70;;;4.60;99.90;;;;;;4848100;29;20737;-72
2024/02/07 11:58:46;;;;;;;0.90;0.60;;;4.50;99.90;;;;;;4854422;29;20438;-71
2024/02/07 12:01:12;;;;;;;0.80;0.60;;;4.40;99.90;;;;;;4851712;29;20422;-71
2024/02/07 12:03:38;;;;;;;0.90;0.60;;;4.40;99.90;;;;;;4855339;29;20465;-69
2024/02/07 12:06:09;;;;;;;0.70;0.50;;;4.30;99.90;;;;;;4848056;29;20466;-71
2024/02/07 12:08:36;;;;;;;0.73;0.50;;;4.30;99.90;;;;;;4849181;29;20425;-70
2024/02/07 12:11:05;;;;;;;0.73;0.50;;;4.30;99.90;;;;;;4849597;29;20509;-71
2024/02/07 12:13:33;;;;;;;0.70;0.50;;;4.40;99.90;;;;;;4864116;29;20938;-70
2024/02/07 12:16:04;;;;;;;1.37;0.50;;;4.30;99.90;;;;;;4858432;29;20858;-70
2024/02/07 12:18:29;;;;;;;0.80;0.60;;;4.10;99.90;;;;;;4853211;29;20472;-71
2024/02/07 12:21:02;;;;;;;1.00;0.60;;;4.00;99.90;;;;;;4864017;29;20517;-72
2024/02/07 12:23:29;;;;;;;0.70;0.50;;;4.00;99.90;;;;;;4850909;29;20532;-73
2024/02/07 12:25:59;;;;;;;0.80;0.57;;;4.00;99.90;;;;;;4851628;29;20457;-71
2024/02/07 12:28:28;;;;;;;0.90;0.60;;;4.10;99.90;;;;;;4851199;29;20473;-71
2024/02/07 12:30:58;;;;;;;0.70;0.50;;;4.10;99.90;;;;;;4849615;29;20572;-69
2024/02/07 12:33:24;;;;;;;0.80;0.50;;;4.20;99.90;;;;;;4854130;29;20476;-70
2024/02/07 12:35:56;;;;;;;0.97;0.70;;;4.20;99.90;;;;;;4847858;29;20471;-72
2024/02/07 12:38:22;;;;;;;0.87;0.60;;;4.10;99.90;;;;;;4850301;29;20756;-71
2024/02/07 12:40:52;;;;;;;1.77;0.67;;;4.00;99.90;;;;;;4863206;29;20475;-71
2024/02/07 12:43:22;;;;;;;1.03;0.60;;;4.00;99.90;;;;;;4848918;29;20445;-70
2024/02/07 12:45:55;;;;;;;1.73;0.60;;;3.90;99.90;;;;;;4850268;29;20458;-70
2024/02/07 12:48:22;;;;;;;0.70;0.50;;;3.90;99.90;;;;;;4848318;29;20554;-71
2024/02/07 12:50:48;;;;;;;0.90;0.60;;;3.90;99.90;;;;;;4851162;29;20434;-68
2024/02/07 12:53:14;;;;;;;0.80;0.57;;;3.90;99.90;;;;;;4851268;29;20550;-71
2024/02/07 12:55:40;;;;;;;0.90;0.50;;;3.90;99.90;;;;;;4864504;29;20217;-72
2024/02/07 12:58:05;;;;;;;0.90;0.57;;;3.90;99.90;;;;;;4850405;29;20201;-69
2024/02/07 13:00:32;;;;;;;0.90;0.60;;;4.00;99.90;;;;;;4849292;29;20462;-70
2024/02/07 13:02:57;;;;;;;0.90;0.60;;;4.10;99.90;;;;;;4850583;29;20196;-71
2024/02/07 13:05:23;;;;;;;0.80;0.60;;;4.20;99.90;;;;;;4845878;29;20453;-72
2024/02/07 13:07:50;;;;;;;0.83;0.53;;;4.20;99.90;;;;;;4849422;29;20201;-73
2024/02/07 13:10:16;;;;;;;0.80;0.50;;;4.20;99.90;;;;;;4849279;29;20508;-69
2024/02/07 13:12:42;;;;;;;0.80;0.50;;;4.30;99.90;;;;;;4849370;29;20466;-71
2024/02/07 13:15:07;;;;;;;0.80;0.60;;;4.20;99.90;;;;;;4848822;29;20536;-72
2024/02/07 13:17:37;;;;;;;0.73;0.50;;;4.10;99.90;;;;;;4863380;29;20189;-71
2024/02/07 13:20:03;;;;;;;0.80;0.50;;;4.10;99.90;;;;;;4846267;29;20442;-72
2024/02/07 13:22:30;;;;;;;0.60;0.40;;;4.10;99.90;;;;;;4848757;29;20422;-70
2024/02/07 13:24:55;;;;;;;0.90;0.60;;;4.10;99.90;;;;;;4848203;29;20197;-72
2024/02/07 13:27:21;;;;;;;0.70;0.50;;;4.20;99.90;;;;;;4848263;29;20936;-72
2024/02/07 13:29:47;;;;;;;0.60;0.40;;;4.20;99.90;;;;;;4848540;29;20201;-69
2024/02/07 13:32:15;;;;;;;1.00;0.50;;;4.30;99.90;;;;;;4863564;29;20225;-69
2024/02/07 13:34:41;;;;;;;0.70;0.50;;;4.20;99.90;;;;;;4847303;29;20434;-72
2024/02/07 13:37:07;;;;;;;0.90;0.50;;;4.20;99.90;;;;;;4849392;29;20519;-71
2024/02/07 13:39:33;;;;;;;0.70;0.50;;;4.30;99.90;;;;;;4847187;29;20934;-72
2024/02/07 13:41:58;;;;;;;0.70;0.50;;;4.40;99.90;;;;;;4849120;29;20205;-71
2024/02/07 13:44:24;;;;;;;0.80;0.50;;;4.40;99.90;;;;;;4850583;29;20263;-70
2024/02/07 13:46:49;;;;;;;0.67;0.40;;;4.60;99.90;;;;;;4845991;29;20277;-71
2024/02/07 13:49:15;;;;;;;0.70;0.50;;;4.60;99.90;;;;;;4849970;29;20192;-71
2024/02/07 13:51:42;;;;;;;1.00;0.57;;;4.60;99.90;;;;;;4850798;29;20189;-70
2024/02/07 13:54:07;;;;;;;0.80;0.50;;;4.50;99.90;;;;;;4850696;29;20225;-70
2024/02/07 13:56:33;;;;;;;0.97;0.60;;;4.40;99.90;;;;;;4846471;29;20501;-72
2024/02/07 13:58:59;;;;;;;1.20;0.60;;;4.30;99.90;;;;;;4845914;29;20207;-71
2024/02/07 14:01:25;;;;;;;1.10;0.77;;;4.30;99.90;;;;;;4848012;29;20233;-71
2024/02/07 14:03:52;;;;;;;1.03;0.57;;;4.30;99.90;;;;;;4848265;29;20434;-71